• Join FlightAware (Why Join?)
  • Login
  • US Flag 
01:54AM EDT


 

Airport Tracker/Info


-or-


 

Live Flight TrackerFlight Track Log ✈ FLG4135 ✈ 30-Sep-2013 ✈ KATW - KMSP

Flight Track Log - Related Links

Times and Time Zones

All times are in EDT time to prevent confusion due to time zone crossing. See the FLG4135 flight status page for this flight to view local times or setup timezone preferences in your user account.

Time Position Orientation Groundspeed Altitude Reporting Facility
EDT Latitude Longitude Course Direction KTS MPH feet Rate Location/Type
08:45AM 44.2522 -88.5986 288° West 157 181 3,500  Level Minneapolis Center
08:46AM 44.2736 -88.6808 290° West 211 243 5,000 2,400 Climbing Minneapolis Center
08:47AM 44.2972 -88.7928 286° West 237 273 8,500 2,760 Climbing Minneapolis Center
08:48AM 44.3128 -88.8939 282° West 255 293 10,700 1,800 Climbing Minneapolis Center
08:49AM 44.3286 -89.0061 281° West 278 320 12,200 1,080 Climbing Minneapolis Center
08:50AM 44.3461 -89.1467 280° West 335 386 13,000 960 Climbing Minneapolis Center
08:51AM 44.3684 -89.2483 288° West  Level Estimated
08:51AM 44.3619 -89.2864 279° West 359 413 14,200  Level Minneapolis Center
08:52AM 44.3983 -89.4094 293° West 358 412 15,900 1,620 Climbing Minneapolis Center
08:53AM 44.4394 -89.5389 294° West 350 403 17,600 1,620 Climbing Minneapolis Center
08:55AM 44.4856 -89.6611 298° West 338 389 19,300 1,140 Climbing Minneapolis Center
08:56AM 44.5317 -89.7775 299° West 340 391 20,000 300 Climbing Minneapolis Center
08:57AM 44.5792 -89.9089 297° West 368 423 20,000  Level Minneapolis Center
08:58AM 44.6261 -90.0467 296° West 387 445 20,000  Level Minneapolis Center
08:59AM 44.6503 -90.1897 283° West 379 436 20,000  Level Minneapolis Center
09:00AM 44.6767 -90.3339 284° West 380 437 20,000  Level Minneapolis Center
09:01AM 44.7031 -90.4772 285° West 381 438 20,000  Level Minneapolis Center
09:02AM 44.7289 -90.6228 284° West 364 419 20,000  Level Minneapolis Center
09:03AM 44.7575 -90.7550 287° West 355 409 20,000  Level Minneapolis Center
09:04AM 44.7814 -90.8925 284° West 362 417 20,000  Level Minneapolis Center
09:05AM 44.8067 -91.0283 285° West 359 413 20,000 -240 Level Minneapolis Center
09:06AM 44.8375 -91.1919 285° West 361 415 19,600 -780 Descending Minneapolis Center
09:07AM 44.8622 -91.3278 284° West 361 415 18,500 -1,080 Descending Minneapolis Center
09:08AM 44.8894 -91.4533 287° West 345 397 17,400 -1,080 Descending Minneapolis Center
09:09AM 44.9172 -91.5789 287° West 338 389 16,400 -1,020 Descending Minneapolis Center
09:10AM 44.9372 -91.7108 282° West 343 395 15,400 -1,020 Descending Minneapolis Center
09:11AM 44.9561 -91.8358 282° West 333 383 14,400 -1,020 Descending Minneapolis Center
09:12AM 44.9789 -91.9578 285° West 323 372 13,400 -1,020 Descending Minneapolis Center
09:13AM 44.9992 -92.0814 283° West 323 372 12,400 -1,080 Descending Minneapolis Center
09:14AM 45.0294 -92.2253 287° West 321 369 11,200 -660 Descending Minneapolis Center
09:15AM 45.0322 -92.3403 272° West 302 348 11,100 -120 Descending Minneapolis Center
09:16AM 45.0108 -92.4583 256° West 308 354 11,000 -60 Descending Minneapolis Center
09:17AM 44.9936 -92.5764 258° West 308 354 11,000  Level Minneapolis Center
09:18AM 44.9783 -92.6961 260° West 310 357 11,000 -360 Level Minneapolis Center
09:19AM 44.9672 -92.8114 262° West 299 344 10,300 -1,080 Descending Minneapolis Center
09:20AM 44.9569 -92.9094 262° West 259 298 8,800 -1,140 Descending Minneapolis Center
09:21AM 44.9381 -93.0003 254° West 244 281 8,000 -720 Descending Minneapolis Center
09:22AM 44.9506 -93.1119 279° West 262 302 7,400 -1,320 Descending Minneapolis Center
09:23AM 44.9892 -93.1989 302° West 265 305 5,400 -1,560 Descending Minneapolis Center
09:24AM 45.0261 -93.2833 302° West 257 296 4,300 -780 Descending Minneapolis Center
09:25AM 44.9972 -93.3394 234° Southwest 192 221 3,900 -600 Descending Minneapolis Center
09:26AM 44.9533 -93.3414 182° South 174 200 3,100 -960 Descending Minneapolis Center
09:27AM 44.9225 -93.2914 131° Southeast 168 193 2,000 -900 Descending Minneapolis Center
09:28AM 44.9044 -93.2467 120° Southeast 136 157 1,300 -720 Descending Minneapolis Center
09:30AM 44.8820 -93.2218 205° Southwest  Level Estimated
09:37AM 44.8820 -93.2218 205° Southwest  Level Estimated